createdAt,value
2023-03-28T00:02:52.930Z,20.33
2023-03-28T00:07:58.986Z,20.98
2023-03-28T00:13:05.022Z,19.00
2023-03-28T00:23:19.691Z,15.80
2023-03-28T00:28:26.086Z,18.65
2023-03-28T00:33:36.214Z,15.68
2023-03-28T00:38:41.468Z,27.95
2023-03-28T00:43:49.531Z,20.17
2023-03-28T00:49:04.338Z,17.92
2023-03-28T00:54:15.160Z,25.05
2023-03-28T00:59:25.286Z,18.67
2023-03-28T01:04:51.042Z,24.25
2023-03-28T01:10:01.348Z,30.00
2023-03-28T01:15:08.396Z,19.58
2023-03-28T01:21:03.032Z,34.83
2023-03-28T01:26:18.729Z,24.95
2023-03-28T01:31:46.625Z,26.93
2023-03-28T01:37:16.412Z,17.35
2023-03-28T01:42:53.783Z,27.38
2023-03-28T01:48:24.711Z,17.45
2023-03-28T01:53:46.992Z,22.23
2023-03-28T01:59:05.414Z,33.97
2023-03-28T02:04:34.956Z,35.80
2023-03-28T02:09:43.594Z,25.38
2023-03-28T02:15:21.640Z,31.75
2023-03-28T02:20:52.260Z,38.42
2023-03-28T02:26:17.023Z,37.38
2023-03-28T02:31:48.318Z,39.88
2023-03-28T02:37:12.918Z,42.00
2023-03-28T02:42:34.397Z,44.70
2023-03-28T02:47:47.351Z,33.17
2023-03-28T02:53:16.550Z,40.28
2023-03-28T02:58:44.543Z,26.88
2023-03-28T03:03:52.665Z,47.35
2023-03-28T03:09:03.564Z,40.22
2023-03-28T03:14:09.669Z,35.35
2023-03-28T03:19:16.305Z,33.50
2023-03-28T03:24:23.746Z,47.70
2023-03-28T03:29:38.832Z,38.38
2023-03-28T03:34:52.552Z,37.25
2023-03-28T03:40:03.210Z,51.45
2023-03-28T03:45:14.035Z,53.28
2023-03-28T03:51:53.386Z,58.80
2023-03-28T03:56:45.614Z,48.60
2023-03-28T04:02:00.398Z,59.60
2023-03-28T04:07:31.514Z,58.42
2023-03-28T04:12:39.827Z,57.30
2023-03-28T04:18:06.244Z,42.35
2023-03-28T04:23:22.022Z,52.78
2023-03-28T04:28:33.213Z,36.03
2023-03-28T04:33:46.952Z,41.60
2023-03-28T04:39:00.661Z,52.85
2023-03-28T04:44:26.461Z,53.85
2023-03-28T04:49:41.814Z,53.30
2023-03-28T04:54:50.466Z,44.47
2023-03-28T05:00:02.606Z,45.42
2023-03-28T05:05:30.581Z,33.95
2023-03-28T05:10:40.453Z,41.38
2023-03-28T05:16:00.850Z,37.33
2023-03-28T05:21:27.546Z,43.38
2023-03-28T05:26:36.006Z,93.03
2023-03-28T05:31:45.718Z,90.93
2023-03-28T05:37:02.802Z,103.35
2023-03-28T05:42:18.073Z,74.53
2023-03-28T05:47:26.486Z,94.85
2023-03-28T05:52:33.328Z,84.75
2023-03-28T05:57:46.493Z,95.30
2023-03-28T06:02:56.638Z,76.03
2023-03-28T06:08:24.617Z,72.55
2023-03-28T06:13:36.171Z,62.30
2023-03-28T06:18:50.184Z,52.50
2023-03-28T06:24:00.212Z,52.25
2023-03-28T06:29:18.616Z,54.17
2023-03-28T06:34:29.275Z,45.83
2023-03-28T06:39:46.080Z,43.35
2023-03-28T06:44:53.094Z,53.05
2023-03-28T06:50:23.190Z,49.97
2023-03-28T06:55:33.375Z,55.85
2023-03-28T07:00:57.439Z,40.22
2023-03-28T07:06:16.654Z,48.58
2023-03-28T07:11:35.612Z,48.67
2023-03-28T07:16:46.854Z,58.20
2023-03-28T07:21:56.718Z,48.75
2023-03-28T07:27:24.875Z,42.95
2023-03-28T07:32:43.281Z,35.40
2023-03-28T07:38:03.015Z,41.28
2023-03-28T07:43:37.555Z,40.80
2023-03-28T07:49:09.724Z,32.85
2023-03-28T07:54:20.192Z,47.20
2023-03-28T07:59:33.277Z,29.25
2023-03-28T08:04:49.194Z,36.40
2023-03-28T08:10:05.188Z,35.30
2023-03-28T08:15:13.786Z,36.08
2023-03-28T08:20:21.859Z,35.25
2023-03-28T08:25:52.778Z,39.10
2023-03-28T08:31:04.307Z,27.48
2023-03-28T08:36:17.640Z,30.55
2023-03-28T08:41:47.285Z,32.23
2023-03-28T08:47:00.359Z,38.77
2023-03-28T08:52:08.834Z,31.98
2023-03-28T08:57:34.967Z,35.22
2023-03-28T09:02:41.885Z,32.88
2023-03-28T09:07:58.215Z,29.80
2023-03-28T09:18:36.002Z,28.80
2023-03-28T09:24:25.479Z,34.40
2023-03-28T09:29:48.429Z,36.85
2023-03-28T09:34:58.460Z,34.90
2023-03-28T09:40:27.158Z,38.05
2023-03-28T09:46:07.009Z,34.38
2023-03-28T09:51:40.217Z,36.38
2023-03-28T09:56:50.690Z,38.25
2023-03-28T10:02:35.895Z,46.20
2023-03-28T10:07:53.679Z,46.25
2023-03-28T10:13:14.663Z,38.03
2023-03-28T10:18:35.235Z,42.15
2023-03-28T10:24:17.640Z,40.63
2023-03-28T10:29:31.997Z,36.80
2023-03-28T10:34:39.537Z,39.42
2023-03-28T10:40:25.699Z,40.13
2023-03-28T10:45:54.965Z,50.03
2023-03-28T10:51:29.623Z,77.38
2023-03-28T10:57:26.045Z,87.70
2023-03-28T11:03:18.497Z,69.63
2023-03-28T11:14:58.961Z,82.93
2023-03-28T11:20:56.805Z,72.25
2023-03-28T11:33:37.714Z,102.20
2023-03-28T11:39:17.042Z,66.03
2023-03-28T11:44:38.530Z,78.88
2023-03-28T11:49:53.263Z,97.45
2023-03-28T11:56:02.067Z,85.53
2023-03-28T12:01:36.660Z,82.05
2023-03-28T12:07:09.273Z,52.72
2023-03-28T12:12:40.297Z,56.92
2023-03-28T12:18:02.204Z,63.92
2023-03-28T12:23:52.884Z,69.13
2023-03-28T12:30:00.856Z,64.22
2023-03-28T12:36:03.572Z,63.33
2023-03-28T12:47:28.356Z,64.55
2023-03-28T12:52:49.122Z,53.25
2023-03-28T12:58:25.583Z,57.28
2023-03-28T13:04:33.628Z,50.55
2023-03-28T13:10:09.597Z,50.13
2023-03-28T13:15:26.742Z,61.70
2023-03-28T13:20:53.927Z,55.47
2023-03-28T13:26:09.996Z,60.58
2023-03-28T13:31:35.187Z,61.58
2023-03-28T13:37:25.934Z,47.33
2023-03-28T13:43:11.476Z,61.20
2023-03-28T13:48:34.537Z,51.55
2023-03-28T13:53:48.690Z,48.70
2023-03-28T13:59:13.269Z,49.00
2023-03-28T14:04:31.965Z,48.38
2023-03-28T14:09:55.857Z,42.30
2023-03-28T14:21:04.139Z,43.13
2023-03-28T14:26:35.040Z,39.35
2023-03-28T14:32:09.897Z,48.17
2023-03-28T14:37:32.866Z,44.13
2023-03-28T14:42:56.036Z,44.58
2023-03-28T14:48:09.726Z,46.45
2023-03-28T14:53:26.626Z,36.85
2023-03-28T14:58:34.555Z,40.42
2023-03-28T15:03:54.333Z,41.47
2023-03-28T15:09:15.646Z,41.30
2023-03-28T15:14:44.333Z,37.88
2023-03-28T15:20:02.553Z,36.97
2023-03-28T15:25:20.161Z,36.28
2023-03-28T15:30:27.994Z,36.33
2023-03-28T15:35:42.216Z,35.00
2023-03-28T15:40:55.503Z,40.45
2023-03-28T15:46:19.005Z,39.72
2023-03-28T15:51:25.675Z,33.22
2023-03-28T15:56:39.100Z,41.22
2023-03-28T16:01:47.257Z,32.00
2023-03-28T16:07:16.752Z,30.33
2023-03-28T16:12:29.004Z,30.52
2023-03-28T16:18:12.479Z,30.30
2023-03-28T16:23:30.392Z,42.35
2023-03-28T16:28:38.079Z,23.98
2023-03-28T16:34:26.261Z,27.88
2023-03-28T16:39:33.185Z,32.05
2023-03-28T16:44:40.539Z,31.38
2023-03-28T16:49:48.733Z,21.67
2023-03-28T16:54:55.589Z,23.60
2023-03-28T17:00:02.429Z,25.05
2023-03-28T17:05:10.202Z,24.90
2023-03-28T17:10:16.394Z,33.50
2023-03-28T17:15:23.698Z,15.98
2023-03-28T17:20:35.078Z,18.65
2023-03-28T17:25:54.854Z,19.98
2023-03-28T17:31:01.836Z,19.63
2023-03-28T17:36:22.496Z,19.30
2023-03-28T17:41:29.305Z,20.15
2023-03-28T17:46:35.594Z,14.77
2023-03-28T17:51:46.570Z,19.23
2023-03-28T17:56:53.113Z,20.58
2023-03-28T18:02:00.206Z,20.45
2023-03-28T18:07:15.914Z,17.15
2023-03-28T18:12:23.911Z,17.92
2023-03-28T18:17:30.296Z,18.88
2023-03-28T18:22:38.122Z,16.80
2023-03-28T18:27:44.058Z,13.77
2023-03-28T18:32:50.165Z,15.15
2023-03-28T18:43:02.314Z,13.93
2023-03-28T18:48:10.335Z,11.68
2023-03-28T18:53:16.263Z,14.60
2023-03-28T18:58:24.957Z,13.23
2023-03-28T19:03:33.182Z,12.48
2023-03-28T19:08:39.254Z,13.85
2023-03-28T19:13:45.521Z,10.23
2023-03-28T19:18:52.401Z,11.40
2023-03-28T19:23:58.155Z,13.52
2023-03-28T19:29:03.448Z,15.63
2023-03-28T19:34:11.376Z,12.27
2023-03-28T19:39:17.207Z,14.40
2023-03-28T19:44:22.864Z,19.58
2023-03-28T19:49:28.447Z,13.95
2023-03-28T19:54:33.836Z,15.53
2023-03-28T19:59:39.164Z,16.27
2023-03-28T20:04:44.731Z,12.23
2023-03-28T20:09:50.804Z,11.30
2023-03-28T20:20:03.274Z,14.70
2023-03-28T20:30:16.357Z,15.63
2023-03-28T20:35:22.655Z,14.90
2023-03-28T20:40:31.890Z,12.05
2023-03-28T20:45:40.411Z,12.32
2023-03-28T20:50:49.033Z,30.02
2023-03-28T20:56:05.505Z,16.90
2023-03-28T21:01:13.973Z,17.50
2023-03-28T21:06:27.598Z,20.08
2023-03-28T21:11:36.610Z,12.63
2023-03-28T21:16:42.597Z,13.07
2023-03-28T21:21:48.709Z,11.38
2023-03-28T21:26:54.702Z,16.70
2023-03-28T21:32:00.599Z,16.95
2023-03-28T21:42:13.011Z,15.23
2023-03-28T21:52:23.631Z,19.42
2023-03-28T21:57:29.484Z,14.17
2023-03-28T22:02:35.237Z,10.07
2023-03-28T22:07:41.090Z,12.27
2023-03-28T22:12:47.931Z,15.98
2023-03-28T22:17:59.393Z,12.70
2023-03-28T22:23:05.900Z,9.98
2023-03-28T22:28:12.621Z,10.20
2023-03-28T22:33:20.828Z,9.32
2023-03-28T22:38:26.437Z,14.57
2023-03-28T22:43:34.716Z,16.00
2023-03-28T22:48:40.845Z,13.90
2023-03-28T22:53:47.082Z,11.93
2023-03-28T22:58:52.947Z,13.55
2023-03-28T23:03:58.498Z,13.52
2023-03-28T23:09:13.211Z,17.77
2023-03-28T23:14:23.788Z,16.10
2023-03-28T23:19:33.879Z,14.07
2023-03-28T23:24:39.412Z,13.02
2023-03-28T23:29:45.099Z,15.07
2023-03-28T23:34:50.707Z,11.50
2023-03-28T23:39:57.376Z,14.47
2023-03-28T23:45:03.207Z,14.35
2023-03-28T23:50:10.790Z,17.75
2023-03-28T23:55:16.751Z,15.55
